Delta Virtual Airport Information Service

Hayden Yampa Valley Airport

ICAO: KHDN Country: United States
Latitude: 40.4812 Longitude: -107.217
Latest Arrival : DAC379 (KDEN-KHDN) Latest Departure : DAC291 (KHDN-KDEN)


WX CaptureLIVE
Data provided by noaa.gov | Fetched at 07:36:26

METAR : KHDN 061256Z AUTO 11013KT 10SM CLR M06/M11 A3023 RMK AO2 SLP257 T10611106 FZRANO

TAF : KHDN 061120Z 0612/0712 12010KT P6SM SKC FM061900 15005KT P6SM FEW250 FM062200 22008KT P6SM FEW250 FM070300 12006KT P6SM FEW250


Runway Data for KHDN
Data provided by openaviationdata.com

Runway ID Mag Var Hdg Length Elevation Surface ILS Freq ILS Id ILS Slope
10 13 100° 9987 ft 6600 ft Asphalt 109.9 IHDN 3
28 13 280° 9987 ft 6600 ft Asphalt -- -- --

Hayden Yampa Valley Airport, United States
Use only for reference purposes



Not for navigational purposes.